• Join FlightAware (Why Join?)
  • Login
  • US Flag 
11:24PM EDT


 

Airport Tracker/Info


-or-


 

Live Flight TrackerFlight Track Log ✈ EGF3994 ✈ 11-Jun-2013 ✈ KORD - KDAY

Flight Track Log - Related Links

Times and Time Zones

All times are in EDT time to prevent confusion due to time zone crossing. See the EGF3994 flight status page for this flight to view local times or setup timezone preferences in your user account.

Time Position Orientation Groundspeed Altitude Reporting Facility
EDT Latitude Longitude Course Direction KTS MPH feet Rate Location/Type
06:48PM 41.9167 -87.8667 90° East 197 227 2,800  Level Chicago TRACON
06:48PM 41.9019 -87.8578 156° South 210 242 3,600 1,680 Climbing Chicago Center
06:49PM 41.9580 -87.4467 98° East  Level FlightAware Approximate
06:49PM 41.8467 -87.7769 133° Southeast 231 266 5,400  Level Chicago Center
06:50PM 41.9450 -87.2964 95° East  Level FlightAware Approximate
06:50PM 41.8119 -87.6861 117° Southeast 279 321 7,200  Level Chicago Center
06:51PM 41.9342 -87.1459 95° East  Level FlightAware Approximate
06:51PM 41.8319 -87.5836 75° East 279 321 9,200  Level Chicago Center
06:52PM 41.9333 -86.9947 90° East  Level FlightAware Approximate
06:52PM 41.8567 -87.4756 73° East 299 344 10,600  Level Chicago Center
06:53PM 41.9333 -86.8680 90° East  Level FlightAware Approximate
06:53PM 41.8811 -87.3564 75° East 325 374 12,200  Level Chicago Center
06:54PM 41.9136 -87.2122 73° East 336 387 14,400 1,800 Climbing Chicago Center
06:55PM 41.9403 -87.0903 74° East 342 394 16,000 1,500 Climbing Chicago Center
06:56PM 41.9486 -86.9578 85° East 358 412 17,600 1,440 Climbing Chicago Center
06:57PM 41.9494 -86.8192 89° East 368 423 19,000 660 Climbing Chicago Center
06:58PM 41.9514 -86.6531 89° East 402 463 19,000  Level Chicago Center
06:59PM 41.9522 -86.4869 90° East 438 504 19,100 480 Climbing Chicago Center
07:00PM 41.9547 -86.3186 89° East 450 518 20,100 960 Climbing Chicago Center
07:02PM 41.9386 -86.1517 97° East 456 525 21,100 960 Climbing Chicago Center
07:03PM 41.8886 -85.9947 113° Southeast 460 529 22,100 900 Climbing Chicago Center
07:04PM 41.8372 -85.8358 113° Southeast 464 534 23,000 420 Climbing Chicago Center
07:05PM 41.7381 -85.6756 130° Southeast 480 552 23,000  Level Chicago Center
07:06PM 41.6350 -85.5603 140° Southeast 490 564 23,000  Level Chicago Center
07:07PM 41.5333 -85.4428 139° Southeast 504 580 23,000  Level Chicago Center
07:08PM 41.3611 -85.2411 139° Southeast 481 554 23,000  Level Indianapolis Center
07:09PM 41.3128 -85.1858 139° Southeast 485 558 23,000 -600 Level Chicago Center
07:10PM 41.2122 -85.0719 140° Southeast 480 552 22,200 -900 Descending Chicago Center
07:11PM 41.1114 -84.9556 139° Southeast 480 552 21,200 -1,080 Descending Chicago Center
07:12PM 41.0089 -84.8406 140° Southeast 483 556 20,000 -1,560 Descending Chicago Center
07:13PM 40.9072 -84.7275 140° Southeast 480 552 18,000 -2,040 Descending Chicago Center
07:14PM 40.7919 -84.5981 140° Southeast 461 531 15,800 -1,800 Descending Chicago Center
07:15PM 40.7433 -84.5431 139° Southeast 436 502 15,000 -960 Descending Indianapolis Center
07:15PM 40.6633 -84.4575 141° Southeast 405 466 14,500 -720 Descending Indianapolis Center
07:16PM 40.6533 -84.4464 140° Southeast 419 482 14,300 -1,800 Descending Indianapolis Center
07:16PM 40.6114 -84.3981 139° Southeast 400 460 13,400 -2,160 Descending Indianapolis Center
07:17PM 40.5558 -84.3358 140° Southeast 396 456 12,100 -1,800 Descending Indianapolis Center
07:17PM 40.5286 -84.3072 141° Southeast 392 451 11,600 -1,080 Descending Indianapolis Center
07:18PM 40.4703 -84.2425 140° Southeast 396 456 11,000 -540 Descending Indianapolis Center
07:18PM 40.4381 -84.2072 140° Southeast 395 455 11,000 -120 Level Indianapolis Center
07:19PM 40.3847 -84.1503 141° Southeast 395 455 10,900 -120 Descending Indianapolis Center
07:19PM 40.3528 -84.1436 171° South 356 410 10,900 -900 Level Indianapolis Center
07:20PM 40.2931 -84.1314 171° South 330 380 10,000 -1,620 Descending Indianapolis Center
07:20PM 40.2558 -84.1228 170° South 308 354 9,300 -1,560 Descending Indianapolis Center
07:21PM 40.2094 -84.1114 169° South 308 354 8,400 -1,620 Descending Indianapolis Center
07:21PM 40.1714 -84.1033 171° South 291 335 7,700 -1,560 Descending Indianapolis Center
07:22PM 40.1311 -84.0919 168° South 294 338 6,800 -1,800 Descending Indianapolis Center
07:22PM 40.0975 -84.0853 171° South 274 315 5,900 -2,400 Descending Indianapolis Center
07:23PM 40.0578 -84.0875 182° South 273 314 4,400 -2,100 Descending Indianapolis Center